createdAt,value
2018-04-08T00:01:10.717Z,68.25
2018-04-08T00:03:38.209Z,68.82
2018-04-08T00:06:06.614Z,68.51
2018-04-08T00:12:04.234Z,67.86
2018-04-08T00:14:31.751Z,68.07
2018-04-08T00:16:59.252Z,67.38
2018-04-08T00:19:26.741Z,67.26
2018-04-08T00:21:54.236Z,67.06
2018-04-08T00:24:21.735Z,66.41
2018-04-08T00:26:49.239Z,65.75
2018-04-08T00:29:16.719Z,65.82
2018-04-08T00:31:44.221Z,65.72
2018-04-08T00:34:11.775Z,65.70
2018-04-08T00:36:39.269Z,65.72
2018-04-08T00:39:06.776Z,65.66
2018-04-08T00:41:34.273Z,66.04
2018-04-08T00:44:01.805Z,66.00
2018-04-08T00:46:29.306Z,66.75
2018-04-08T00:48:56.825Z,66.08
2018-04-08T00:51:24.776Z,66.76
2018-04-08T00:54:06.774Z,67.14
2018-04-08T00:56:34.296Z,67.30
2018-04-08T00:59:01.809Z,67.81
2018-04-08T01:01:29.304Z,68.06
2018-04-08T01:03:56.814Z,68.50
2018-04-08T01:06:24.312Z,68.90
2018-04-08T01:08:51.835Z,68.03
2018-04-08T01:11:19.332Z,68.35
2018-04-08T01:13:46.833Z,67.96
2018-04-08T01:16:14.314Z,68.55
2018-04-08T01:18:41.835Z,68.31
2018-04-08T01:21:09.335Z,68.36
2018-04-08T01:23:36.809Z,68.73
2018-04-08T01:26:04.298Z,69.23
2018-04-08T01:28:31.820Z,69.54
2018-04-08T01:30:59.340Z,70.30
2018-04-08T01:33:26.837Z,71.32
2018-04-08T01:35:54.314Z,71.50
2018-04-08T01:38:21.835Z,71.78
2018-04-08T01:40:49.334Z,72.35
2018-04-08T01:43:16.828Z,72.88
2018-04-08T01:45:44.319Z,73.38
2018-04-08T01:48:11.841Z,74.10
2018-04-08T01:50:39.327Z,74.61
2018-04-08T01:53:06.832Z,75.55
2018-04-08T01:55:34.349Z,76.67
2018-04-08T01:58:01.852Z,76.88
2018-04-08T02:00:29.360Z,77.15
2018-04-08T02:02:56.854Z,77.35
2018-04-08T02:05:24.340Z,77.30
2018-04-08T02:07:51.885Z,77.23
2018-04-08T02:10:19.422Z,77.16
2018-04-08T02:12:46.928Z,77.73
2018-04-08T02:15:14.432Z,78.09
2018-04-08T02:17:41.912Z,78.38
2018-04-08T02:20:09.446Z,78.81
2018-04-08T02:22:36.937Z,78.54
2018-04-08T02:25:04.432Z,78.91
2018-04-08T02:27:31.912Z,78.91
2018-04-08T02:29:59.456Z,79.39
2018-04-08T02:32:26.957Z,79.71
2018-04-08T02:34:54.472Z,80.01
2018-04-08T02:37:21.988Z,79.88
2018-04-08T02:39:49.491Z,79.63
2018-04-08T02:42:17.016Z,79.93
2018-04-08T02:44:44.502Z,80.17
2018-04-08T02:47:11.996Z,79.83
2018-04-08T02:49:39.494Z,79.88
2018-04-08T02:52:06.967Z,80.19
2018-04-08T02:54:34.473Z,80.02
2018-04-08T02:57:01.960Z,80.39
2018-04-08T02:59:29.437Z,79.98
2018-04-08T03:01:56.934Z,80.33
2018-04-08T03:04:24.407Z,80.90
2018-04-08T03:06:51.896Z,81.47
2018-04-08T03:09:19.404Z,81.76
2018-04-08T03:11:46.927Z,82.09
2018-04-08T03:14:14.405Z,81.63
2018-04-08T03:16:41.900Z,81.84
2018-04-08T03:19:09.400Z,81.73
2018-04-08T03:21:36.881Z,82.07
2018-04-08T03:24:04.374Z,81.88
2018-04-08T03:26:31.890Z,82.54
2018-04-08T03:28:59.387Z,82.50
2018-04-08T03:31:26.898Z,82.78
2018-04-08T03:33:54.417Z,83.23
2018-04-08T03:36:21.907Z,82.90
2018-04-08T03:38:49.424Z,82.93
2018-04-08T03:41:16.902Z,82.71
2018-04-08T03:43:44.393Z,82.96
2018-04-08T03:46:11.935Z,83.02
2018-04-08T03:48:39.407Z,83.28
2018-04-08T03:51:06.906Z,83.03
2018-04-08T03:53:34.425Z,82.98
2018-04-08T03:56:01.924Z,82.99
2018-04-08T03:58:29.406Z,83.44
2018-04-08T04:00:56.922Z,83.72
2018-04-08T04:03:24.461Z,83.49
2018-04-08T04:05:51.950Z,83.87
2018-04-08T04:08:19.468Z,83.87
2018-04-08T04:10:46.971Z,84.23
2018-04-08T04:13:14.449Z,84.34
2018-04-08T04:15:41.944Z,84.47
2018-04-08T04:18:21.176Z,84.42
2018-04-08T04:21:00.339Z,84.25
2018-04-08T04:23:39.597Z,84.17
2018-04-08T04:26:15.701Z,84.39
2018-04-08T04:28:43.178Z,84.30
2018-04-08T04:31:10.700Z,84.21
2018-04-08T04:33:38.831Z,84.48
2018-04-08T04:36:06.348Z,84.54
2018-04-08T04:38:33.859Z,84.62
2018-04-08T04:41:01.360Z,84.54
2018-04-08T04:43:28.864Z,85.16
2018-04-08T04:45:56.354Z,85.11
2018-04-08T04:48:23.831Z,85.19
2018-04-08T04:50:51.346Z,85.46
2018-04-08T04:53:18.864Z,85.59
2018-04-08T04:55:46.378Z,85.22
2018-04-08T04:58:13.859Z,84.71
2018-04-08T05:00:41.345Z,84.97
2018-04-08T05:03:08.852Z,84.72
2018-04-08T05:05:36.329Z,84.62
2018-04-08T05:08:03.836Z,84.48
2018-04-08T05:10:31.827Z,84.82
2018-04-08T05:12:59.735Z,84.94
2018-04-08T05:15:27.460Z,84.84
2018-04-08T05:17:54.970Z,84.87
2018-04-08T05:20:22.497Z,84.97
2018-04-08T05:22:50.054Z,85.04
2018-04-08T05:25:17.603Z,84.87
2018-04-08T05:27:45.121Z,84.22
2018-04-08T05:30:12.698Z,84.68
2018-04-08T05:32:40.197Z,83.92
2018-04-08T05:35:07.727Z,83.37
2018-04-08T05:37:35.339Z,83.21
2018-04-08T05:40:02.850Z,82.61
2018-04-08T05:42:30.334Z,82.70
2018-04-08T05:44:57.824Z,82.28
2018-04-08T05:47:25.338Z,82.07
2018-04-08T05:49:52.833Z,81.26
2018-04-08T05:52:27.938Z,81.36
2018-04-08T05:54:55.440Z,81.12
2018-04-08T05:57:22.949Z,80.21
2018-04-08T05:59:52.260Z,78.00
2018-04-08T06:02:24.397Z,73.15
2018-04-08T06:04:51.954Z,70.00
2018-04-08T06:07:19.542Z,67.08
2018-04-08T06:09:47.122Z,65.85
2018-04-08T06:12:14.664Z,63.90
2018-04-08T06:14:47.292Z,63.28
2018-04-08T06:17:17.085Z,60.60
2018-04-08T06:19:44.560Z,61.54
2018-04-08T06:22:12.065Z,58.95
2018-04-08T06:24:41.445Z,58.56
2018-04-08T06:27:08.938Z,58.00
2018-04-08T06:29:36.482Z,54.61
2018-04-08T06:32:03.980Z,57.97
2018-04-08T06:34:31.853Z,56.27
2018-04-08T06:36:59.425Z,56.81
2018-04-08T06:39:26.987Z,56.67
2018-04-08T06:41:54.505Z,56.81
2018-04-08T06:44:22.001Z,56.25
2018-04-08T06:46:49.510Z,57.00
2018-04-08T06:49:17.095Z,57.88
2018-04-08T06:51:46.317Z,60.02
2018-04-08T06:54:13.815Z,60.25
2018-04-08T06:56:41.332Z,61.55
2018-04-08T06:59:10.835Z,61.80
2018-04-08T07:01:43.102Z,60.80
2018-04-08T07:04:10.643Z,61.49
2018-04-08T07:06:38.209Z,60.58
2018-04-08T07:09:05.746Z,62.34
2018-04-08T07:11:33.240Z,60.02
2018-04-08T07:14:00.721Z,59.06
2018-04-08T07:16:28.917Z,60.08
2018-04-08T07:18:56.444Z,61.67
2018-04-08T07:21:27.548Z,60.24
2018-04-08T07:23:55.051Z,60.40
2018-04-08T07:26:22.546Z,58.67
2018-04-08T07:28:50.103Z,56.64
2018-04-08T07:31:17.602Z,56.95
2018-04-08T07:33:45.099Z,53.84
2018-04-08T07:36:12.598Z,54.01
2018-04-08T07:38:40.071Z,53.36
2018-04-08T07:41:07.610Z,52.84
2018-04-08T07:43:35.124Z,52.88
2018-04-08T07:46:02.686Z,52.53
2018-04-08T07:48:30.230Z,52.71
2018-04-08T07:50:57.831Z,54.06
2018-04-08T07:53:25.381Z,51.44
2018-04-08T07:55:52.958Z,52.22
2018-04-08T07:58:20.499Z,51.99
2018-04-08T08:00:48.021Z,48.84
2018-04-08T08:03:15.527Z,47.08
2018-04-08T08:05:43.036Z,48.60
2018-04-08T08:08:10.571Z,48.65
2018-04-08T08:10:38.114Z,46.50
2018-04-08T08:13:05.650Z,46.37
2018-04-08T08:15:33.157Z,45.85
2018-04-08T08:18:00.658Z,48.23
2018-04-08T08:20:28.159Z,47.10
2018-04-08T08:22:55.737Z,48.36
2018-04-08T08:25:23.247Z,47.91
2018-04-08T08:27:50.751Z,49.11
2018-04-08T08:30:18.263Z,48.76
2018-04-08T08:32:45.813Z,47.62
2018-04-08T08:35:13.306Z,47.70
2018-04-08T08:37:40.916Z,48.93
2018-04-08T08:40:08.427Z,49.47
2018-04-08T08:42:35.949Z,50.08
2018-04-08T08:45:04.277Z,49.76
2018-04-08T08:47:31.803Z,50.35
2018-04-08T08:49:59.338Z,50.76
2018-04-08T08:52:26.842Z,49.68
2018-04-08T08:54:54.383Z,49.95
2018-04-08T08:57:21.885Z,51.08
2018-04-08T08:59:49.390Z,50.31
2018-04-08T09:02:16.888Z,51.02
2018-04-08T09:04:44.376Z,52.28
2018-04-08T09:07:11.878Z,52.80
2018-04-08T09:09:39.386Z,51.67
2018-04-08T09:12:06.905Z,53.94
2018-04-08T09:14:34.435Z,54.56
2018-04-08T09:17:01.931Z,54.69
2018-04-08T09:19:33.964Z,54.30
2018-04-08T09:22:03.408Z,53.28
2018-04-08T09:24:41.758Z,54.41
2018-04-08T09:27:09.248Z,54.02
2018-04-08T09:29:36.768Z,52.95
2018-04-08T09:32:04.235Z,52.13
2018-04-08T09:34:31.760Z,54.63
2018-04-08T09:36:59.271Z,51.56
2018-04-08T09:39:26.793Z,53.92
2018-04-08T09:41:54.327Z,51.32
2018-04-08T09:44:21.815Z,52.22
2018-04-08T09:46:49.434Z,53.71
2018-04-08T09:49:16.925Z,52.38
2018-04-08T09:51:44.421Z,51.52
2018-04-08T09:54:11.951Z,51.87
2018-04-08T09:56:39.434Z,53.16
2018-04-08T09:59:06.960Z,50.46
2018-04-08T10:04:37.442Z,48.79
2018-04-08T10:07:04.933Z,50.45
2018-04-08T10:09:32.491Z,50.72
2018-04-08T10:11:59.998Z,49.79
2018-04-08T10:14:27.486Z,50.43
2018-04-08T10:16:54.990Z,50.97
2018-04-08T10:19:22.505Z,50.43
2018-04-08T10:21:50.020Z,49.89
2018-04-08T10:24:17.527Z,49.25
2018-04-08T10:26:45.044Z,49.94
2018-04-08T10:29:12.597Z,48.93
2018-04-08T10:31:40.054Z,49.98
2018-04-08T10:34:07.551Z,47.68
2018-04-08T10:36:35.061Z,47.56
2018-04-08T10:39:02.546Z,46.75
2018-04-08T10:41:30.043Z,46.86
2018-04-08T10:43:57.551Z,46.10
2018-04-08T10:46:25.079Z,47.95
2018-04-08T10:48:52.574Z,50.32
2018-04-08T10:51:20.073Z,49.50
2018-04-08T10:53:48.075Z,48.61
2018-04-08T10:56:15.576Z,46.69
2018-04-08T10:58:43.254Z,47.45
2018-04-08T11:01:11.249Z,48.72
2018-04-08T11:03:38.788Z,49.82
2018-04-08T11:06:06.303Z,48.39
2018-04-08T11:08:33.819Z,48.54
2018-04-08T11:11:01.332Z,51.03
2018-04-08T11:13:28.817Z,46.43
2018-04-08T11:15:56.335Z,47.41
2018-04-08T11:18:23.846Z,48.15
2018-04-08T11:20:51.341Z,47.56
2018-04-08T11:23:18.817Z,47.44
2018-04-08T11:25:46.358Z,46.15
2018-04-08T11:28:13.990Z,47.82
2018-04-08T11:30:41.502Z,48.51
2018-04-08T11:33:08.988Z,47.17
2018-04-08T11:35:36.498Z,45.43
2018-04-08T11:38:03.997Z,45.33
2018-04-08T11:40:31.498Z,48.09
2018-04-08T11:42:59.001Z,48.43
2018-04-08T11:45:26.533Z,47.66
2018-04-08T11:47:54.035Z,47.84
2018-04-08T11:50:21.569Z,46.87
2018-04-08T11:52:49.050Z,45.24
2018-04-08T11:55:16.549Z,46.23
2018-04-08T11:57:44.052Z,47.66
2018-04-08T12:00:11.589Z,48.97
2018-04-08T12:02:39.102Z,48.69
2018-04-08T12:05:06.600Z,48.35
2018-04-08T12:07:34.078Z,49.11
2018-04-08T12:10:01.570Z,50.97
2018-04-08T12:12:29.078Z,49.01
2018-04-08T12:14:56.608Z,51.30
2018-04-08T12:17:24.063Z,49.65
2018-04-08T12:19:51.568Z,46.69
2018-04-08T12:22:19.080Z,47.14
2018-04-08T12:24:46.558Z,45.64
2018-04-08T12:27:14.967Z,44.99
2018-04-08T12:29:42.461Z,44.69
2018-04-08T12:32:09.990Z,45.63
2018-04-08T12:34:37.494Z,47.79
2018-04-08T12:37:05.014Z,44.94
2018-04-08T12:39:32.508Z,46.20
2018-04-08T12:42:00.156Z,47.19
2018-04-08T12:44:27.650Z,47.89
2018-04-08T12:46:55.153Z,48.55
2018-04-08T12:49:22.676Z,49.50
2018-04-08T12:51:50.251Z,47.94
2018-04-08T12:54:17.690Z,47.07
2018-04-08T12:56:45.177Z,45.97
2018-04-08T12:59:12.674Z,47.27
2018-04-08T13:01:40.441Z,47.61
2018-04-08T13:04:07.926Z,47.48
2018-04-08T13:06:35.429Z,47.28
2018-04-08T13:09:02.941Z,47.81
2018-04-08T13:11:30.448Z,48.04
2018-04-08T13:13:57.939Z,46.90
2018-04-08T13:16:25.449Z,46.43
2018-04-08T13:18:53.026Z,46.80
2018-04-08T13:21:20.512Z,45.49
2018-04-08T13:23:48.050Z,47.30
2018-04-08T13:26:15.548Z,44.04
2018-04-08T13:28:43.063Z,44.38
2018-04-08T13:31:10.729Z,45.00
2018-04-08T13:33:38.256Z,42.13
2018-04-08T13:36:05.761Z,43.60
2018-04-08T13:38:33.283Z,43.75
2018-04-08T13:41:00.783Z,45.00
2018-04-08T13:43:28.257Z,45.64
2018-04-08T13:45:55.850Z,42.88
2018-04-08T13:48:23.348Z,44.15
2018-04-08T13:50:50.860Z,45.77
2018-04-08T13:53:18.368Z,45.27
2018-04-08T13:55:45.882Z,41.91
2018-04-08T13:58:13.393Z,43.00
2018-04-08T14:00:40.884Z,45.03
2018-04-08T14:03:08.394Z,45.55
2018-04-08T14:05:35.920Z,44.86
2018-04-08T14:08:03.422Z,44.83
2018-04-08T14:10:30.930Z,44.19
2018-04-08T14:12:58.430Z,45.61
2018-04-08T14:15:25.925Z,47.39
2018-04-08T14:17:53.466Z,46.33
2018-04-08T14:20:20.959Z,46.87
2018-04-08T14:22:48.559Z,46.75
2018-04-08T14:25:16.311Z,45.67
2018-04-08T14:27:43.850Z,45.81
2018-04-08T14:30:11.354Z,46.06
2018-04-08T14:32:38.856Z,45.56
2018-04-08T14:35:06.364Z,46.40
2018-04-08T14:37:33.863Z,47.10
2018-04-08T14:40:01.372Z,46.54
2018-04-08T14:42:28.865Z,46.27
2018-04-08T14:44:56.436Z,47.26
2018-04-08T14:47:23.978Z,46.34
2018-04-08T14:49:51.536Z,47.50
2018-04-08T14:52:19.124Z,46.72
2018-04-08T14:54:46.636Z,48.48
2018-04-08T14:57:14.220Z,47.63
2018-04-08T14:59:41.714Z,47.92
2018-04-08T15:02:09.246Z,48.53
2018-04-08T15:04:36.766Z,48.02
2018-04-08T15:07:04.275Z,48.41
2018-04-08T15:09:31.806Z,47.64
2018-04-08T15:11:59.371Z,47.36
2018-04-08T15:14:26.861Z,47.62
2018-04-08T15:16:54.369Z,47.03
2018-04-08T15:19:21.852Z,47.52
2018-04-08T15:21:49.342Z,46.88
2018-04-08T15:24:16.854Z,47.42
2018-04-08T15:26:44.364Z,47.55
2018-04-08T15:29:11.904Z,47.98
2018-04-08T15:31:39.443Z,49.14
2018-04-08T15:34:07.024Z,48.52
2018-04-08T15:36:34.547Z,48.58
2018-04-08T15:39:02.123Z,50.35
2018-04-08T15:41:29.639Z,49.04
2018-04-08T15:43:57.130Z,49.51
2018-04-08T15:46:24.602Z,49.06
2018-04-08T15:48:52.119Z,48.96
2018-04-08T15:51:19.671Z,48.20
2018-04-08T15:53:47.462Z,48.36
2018-04-08T15:56:17.031Z,48.43
2018-04-08T15:58:46.392Z,49.85
2018-04-08T16:01:14.138Z,49.55
2018-04-08T16:03:42.793Z,50.43
2018-04-08T16:06:10.997Z,50.62
2018-04-08T16:08:40.925Z,50.58
2018-04-08T16:11:08.944Z,50.66
2018-04-08T16:13:36.464Z,49.77
2018-04-08T16:16:03.939Z,50.27
2018-04-08T16:18:31.429Z,50.76
2018-04-08T16:20:59.053Z,50.96
2018-04-08T16:23:26.552Z,51.25
2018-04-08T16:25:54.056Z,51.23
2018-04-08T16:28:21.654Z,52.12
2018-04-08T16:30:49.153Z,51.73
2018-04-08T16:33:16.696Z,52.74
2018-04-08T16:35:44.251Z,52.97
2018-04-08T16:38:11.744Z,53.17
2018-04-08T16:40:39.245Z,52.74
2018-04-08T16:43:06.749Z,52.49
2018-04-08T16:45:34.253Z,53.02
2018-04-08T16:48:01.779Z,53.52
2018-04-08T16:50:29.270Z,54.19
2018-04-08T16:52:56.844Z,53.52
2018-04-08T16:55:24.344Z,53.64
2018-04-08T16:57:51.856Z,54.30
2018-04-08T17:00:19.379Z,54.43
2018-04-08T17:02:46.884Z,54.56
2018-04-08T17:05:14.415Z,54.58
2018-04-08T17:07:41.906Z,54.53
2018-04-08T17:10:09.428Z,54.16
2018-04-08T17:12:36.913Z,54.44
2018-04-08T17:15:04.393Z,54.58
2018-04-08T17:17:31.909Z,54.97
2018-04-08T17:19:59.419Z,54.62
2018-04-08T17:22:26.959Z,54.50
2018-04-08T17:24:54.502Z,54.79
2018-04-08T17:27:22.052Z,54.16
2018-04-08T17:29:49.592Z,54.22
2018-04-08T17:32:17.129Z,54.45
2018-04-08T17:34:44.638Z,55.21
2018-04-08T17:37:12.156Z,55.10
2018-04-08T17:39:39.646Z,55.15
2018-04-08T17:42:07.146Z,54.55
2018-04-08T17:44:34.670Z,55.02
2018-04-08T17:47:02.179Z,54.87
2018-04-08T17:49:29.751Z,55.99
2018-04-08T17:51:57.267Z,56.98
2018-04-08T17:54:24.787Z,57.43
2018-04-08T17:56:52.268Z,58.88
2018-04-08T17:59:19.792Z,60.51
2018-04-08T18:01:47.351Z,61.32
2018-04-08T18:04:14.841Z,61.67
2018-04-08T18:06:42.323Z,61.56
2018-04-08T18:09:09.830Z,61.98
2018-04-08T18:11:37.321Z,61.86
2018-04-08T18:14:04.885Z,61.92
2018-04-08T18:16:32.414Z,62.63
2018-04-08T18:18:59.910Z,62.72
2018-04-08T18:21:27.644Z,62.56
2018-04-08T18:23:55.144Z,63.03
2018-04-08T18:26:22.651Z,63.15
2018-04-08T18:28:50.608Z,63.06
2018-04-08T18:31:18.106Z,63.08
2018-04-08T18:33:45.626Z,63.53
2018-04-08T18:36:13.143Z,63.77
2018-04-08T18:38:41.183Z,63.91
2018-04-08T18:41:08.775Z,63.80
2018-04-08T18:43:36.347Z,64.37
2018-04-08T18:46:03.856Z,64.14
2018-04-08T18:48:31.420Z,64.30
2018-04-08T18:50:58.942Z,64.42
2018-04-08T18:53:26.483Z,64.37
2018-04-08T18:55:53.996Z,65.37
2018-04-08T18:58:21.498Z,64.83
2018-04-08T19:00:49.018Z,65.84
2018-04-08T19:03:16.573Z,65.48
2018-04-08T19:05:44.093Z,65.78
2018-04-08T19:08:11.586Z,65.35
2018-04-08T19:10:39.339Z,64.94
2018-04-08T19:13:06.872Z,65.23
2018-04-08T19:15:34.509Z,65.47
2018-04-08T19:18:02.977Z,65.25
2018-04-08T19:20:31.115Z,64.86
2018-04-08T19:22:58.659Z,65.48
2018-04-08T19:25:26.295Z,64.93
2018-04-08T19:27:53.842Z,64.99
2018-04-08T19:30:22.071Z,64.91
2018-04-08T19:32:49.610Z,65.09
2018-04-08T19:35:17.104Z,64.99
2018-04-08T19:37:44.646Z,64.64
2018-04-08T19:40:12.215Z,64.63
2018-04-08T19:42:39.903Z,64.08
2018-04-08T19:45:07.576Z,64.49
2018-04-08T19:47:35.102Z,64.69
2018-04-08T19:50:02.616Z,64.14
2018-04-08T19:52:30.142Z,64.03
2018-04-08T19:54:57.622Z,64.02
2018-04-08T19:57:25.509Z,64.18
2018-04-08T19:59:53.146Z,63.83
2018-04-08T20:02:20.659Z,64.34
2018-04-08T20:04:48.291Z,64.23
2018-04-08T20:07:15.788Z,64.30
2018-04-08T20:09:43.289Z,64.69
2018-04-08T20:12:10.825Z,64.97
2018-04-08T20:14:38.377Z,65.09
2018-04-08T20:17:05.882Z,65.57
2018-04-08T20:19:33.891Z,65.55
2018-04-08T20:22:01.590Z,65.85
2018-04-08T20:24:29.889Z,66.04
2018-04-08T20:26:57.415Z,65.93
2018-04-08T20:29:24.930Z,66.17
2018-04-08T20:31:52.564Z,66.41
2018-04-08T20:34:20.291Z,66.31
2018-04-08T20:36:47.790Z,66.93
2018-04-08T20:39:15.293Z,67.19
2018-04-08T20:41:42.793Z,67.28
2018-04-08T20:44:10.309Z,67.37
2018-04-08T20:46:37.822Z,67.45
2018-04-08T20:49:05.387Z,67.87
2018-04-08T20:51:32.852Z,68.72
2018-04-08T20:54:00.373Z,68.47
2018-04-08T20:56:27.896Z,69.10
2018-04-08T20:58:55.436Z,69.08
2018-04-08T21:01:22.928Z,69.85
2018-04-08T21:03:50.441Z,69.32
2018-04-08T21:06:17.946Z,69.25
2018-04-08T21:08:45.458Z,69.12
2018-04-08T21:11:12.942Z,69.25
2018-04-08T21:13:40.940Z,69.33
2018-04-08T21:16:08.461Z,69.51
2018-04-08T21:18:35.984Z,69.81
2018-04-08T21:21:03.485Z,69.57
2018-04-08T21:23:31.050Z,69.63
2018-04-08T21:25:58.517Z,69.99
2018-04-08T21:28:26.022Z,69.71
2018-04-08T21:30:53.622Z,69.74
2018-04-08T21:33:21.123Z,70.06
2018-04-08T21:35:48.641Z,70.36
2018-04-08T21:38:16.160Z,70.71
2018-04-08T21:40:43.660Z,71.29
2018-04-08T21:43:11.179Z,71.50
2018-04-08T21:45:38.665Z,72.26
2018-04-08T21:48:06.157Z,71.56
2018-04-08T21:50:33.642Z,72.41
2018-04-08T21:53:01.211Z,72.39
2018-04-08T21:55:28.706Z,72.69
2018-04-08T21:57:56.236Z,72.75
2018-04-08T22:00:23.736Z,72.76
2018-04-08T22:02:51.218Z,72.99
2018-04-08T22:05:18.725Z,73.20
2018-04-08T22:07:46.265Z,72.67
2018-04-08T22:10:13.780Z,72.65
2018-04-08T22:12:41.282Z,72.49
2018-04-08T22:15:08.769Z,72.58
2018-04-08T22:17:36.262Z,72.45
2018-04-08T22:20:03.751Z,72.39
2018-04-08T22:22:31.251Z,72.56
2018-04-08T22:24:58.759Z,72.82
2018-04-08T22:27:26.260Z,72.64
2018-04-08T22:29:53.782Z,72.59
2018-04-08T22:32:21.300Z,72.17
2018-04-08T22:34:48.808Z,72.16
2018-04-08T22:37:16.297Z,72.45
2018-04-08T22:39:43.794Z,72.23
2018-04-08T22:42:11.284Z,72.72
2018-04-08T22:44:38.772Z,72.66
2018-04-08T22:47:06.280Z,72.49
2018-04-08T22:49:33.806Z,72.62
2018-04-08T22:52:01.327Z,72.86
2018-04-08T22:54:28.809Z,72.30
2018-04-08T22:56:56.325Z,72.14
2018-04-08T22:59:23.830Z,72.18
2018-04-08T23:01:51.329Z,72.17
2018-04-08T23:04:18.810Z,71.86
2018-04-08T23:06:46.324Z,71.33
2018-04-08T23:09:13.826Z,72.01
2018-04-08T23:11:41.354Z,71.73
2018-04-08T23:14:08.840Z,72.85
2018-04-08T23:16:36.371Z,72.79
2018-04-08T23:19:03.863Z,72.58
2018-04-08T23:21:31.334Z,73.23
2018-04-08T23:23:58.827Z,72.53
2018-04-08T23:26:26.346Z,72.97
2018-04-08T23:28:53.867Z,73.64
2018-04-08T23:31:21.354Z,74.23
2018-04-08T23:33:48.924Z,75.00
2018-04-08T23:36:16.787Z,75.70
2018-04-08T23:38:44.310Z,76.33
2018-04-08T23:41:11.796Z,76.56
2018-04-08T23:43:39.338Z,76.94
2018-04-08T23:46:06.822Z,77.51
2018-04-08T23:48:34.308Z,77.84
2018-04-08T23:51:01.829Z,77.93
2018-04-08T23:53:29.345Z,77.84
2018-04-08T23:55:56.830Z,78.46
2018-04-08T23:58:24.319Z,78.88
